Time;durP1;ratioP1;P1;durP2;ratioP2;P2;SDS_P1;SDS_P2;PMS_P1;PMS_P2;Temp;Humidity;BMP_temperature;BMP_pressure;BME280_temperature;BME280_humidity;BME280_pressure;Samples;Min_cycle;Max_cycle;Signal;HPM_P1;HPM_P2
2022/09/21 00:00:00;;;;;;;3.15;1.98;;;;;;;10.93;83.04;101717.57;1684370;83;22179;-90
2022/09/21 00:02:28;;;;;;;2.47;1.95;;;;;;;10.99;83.14;101724.38;1661789;84;21580;-91
2022/09/21 00:04:54;;;;;;;2.70;1.65;;;;;;;11.04;83.16;101718.88;1642571;84;21115;-90
2022/09/21 00:07:21;;;;;;;5.40;1.70;;;;;;;11.06;83.03;101723.79;1666596;84;21078;-90
2022/09/21 00:09:48;;;;;;;2.87;1.60;;;;;;;11.06;82.84;101720.73;1648330;84;21175;-90
2022/09/21 00:12:15;;;;;;;3.02;1.37;;;;;;;11.08;82.73;101715.09;1642490;84;21990;-91
2022/09/21 00:14:42;;;;;;;5.80;1.62;;;;;;;11.11;82.74;101715.61;1673778;83;20978;-90
2022/09/21 00:17:09;;;;;;;7.50;2.00;;;;;;;11.16;82.82;101714.49;1642232;85;21108;-90
2022/09/21 00:19:36;;;;;;;3.95;2.05;;;;;;;11.20;82.82;101712.45;1631988;86;21129;-92
2022/09/21 00:22:03;;;;;;;3.58;1.87;;;;;;;11.22;82.79;101712.08;1626230;85;21087;-92
2022/09/21 00:24:30;;;;;;;6.10;1.65;;;;;;;11.21;82.61;101712.94;1659441;83;21884;-91
2022/09/21 00:26:57;;;;;;;3.35;1.77;;;;;;;11.17;82.51;101709.28;1693615;82;21096;-91
2022/09/21 00:29:24;;;;;;;4.72;2.00;;;;;;;11.15;82.54;101714.92;1694823;83;21094;-90
2022/09/21 00:31:50;;;;;;;7.00;2.52;;;;;;;11.14;82.59;101722.77;1699433;83;21584;-91
2022/09/21 00:34:17;;;;;;;4.37;2.30;;;;;;;11.17;82.87;101731.69;1688935;84;21066;-90
2022/09/21 00:36:45;;;;;;;11.75;2.60;;;;;;;11.20;82.94;101737.48;1673926;83;22482;-90
2022/09/21 00:39:12;;;;;;;5.53;2.30;;;;;;;11.21;82.92;101740.18;1669920;83;21084;-91
2022/09/21 00:41:38;;;;;;;4.20;1.72;;;;;;;11.24;82.88;101742.02;1676128;83;21064;-90
2022/09/21 00:44:32;;;;;;;3.15;1.90;;;;;;;11.23;82.93;101751.67;1710398;82;21311;-90
2022/09/21 00:47:04;;;;;;;6.23;2.37;;;;;;;11.21;83.02;101739.30;1709262;82;21089;-90
2022/09/21 00:49:31;;;;;;;4.55;2.00;;;;;;;11.18;82.94;101737.84;1666327;83;21757;-91
2022/09/21 00:51:58;;;;;;;2.85;1.85;;;;;;;11.17;83.09;101742.23;1690313;83;21058;-90
2022/09/21 00:54:29;;;;;;;3.47;1.80;;;;;;;11.18;83.10;101731.26;1677751;83;21504;-89
2022/09/21 00:57:00;;;;;;;6.25;2.12;;;;;;;11.19;83.06;101727.37;1679654;83;21823;-91
2022/09/21 00:59:24;;;;;;;4.92;1.52;;;;;;;11.19;83.04;101731.32;1678578;83;21097;-90
2022/09/21 01:01:51;;;;;;;2.55;1.77;;;;;;;11.19;83.04;101738.34;1677376;83;21960;-91
2022/09/21 01:04:18;;;;;;;6.53;1.60;;;;;;;11.19;82.99;101735.70;1677619;83;21086;-90
2022/09/21 01:06:46;;;;;;;4.97;1.40;;;;;;;11.14;82.81;101733.30;1674969;83;21094;-90
2022/09/21 01:09:14;;;;;;;5.83;1.82;;;;;;;11.07;82.69;101729.52;1671125;84;21599;-90
2022/09/21 01:11:55;;;;;;;5.60;1.80;;;;;;;11.01;82.63;101735.45;1678374;83;22166;-90
2022/09/21 01:14:59;;;;;;;7.05;2.20;;;;;;;10.91;82.56;101731.10;1677784;83;21821;-90
2022/09/21 01:17:36;;;;;;;7.33;2.20;;;;;;;10.81;82.51;101730.73;1669050;83;21345;-90
2022/09/21 01:20:40;;;;;;;3.90;2.27;;;;;;;10.69;82.53;101727.59;1678140;83;21141;-90
2022/09/21 01:23:53;;;;;;;4.05;2.00;;;;;;;10.58;82.57;101724.52;1677927;83;21077;-91
2022/09/21 01:27:01;;;;;;;3.35;2.10;;;;;;;10.48;82.67;101732.90;1664514;84;21578;-91
2022/09/21 01:29:42;;;;;;;3.85;2.05;;;;;;;10.36;82.73;101729.75;1683501;84;21764;-91
2022/09/21 01:32:28;;;;;;;5.92;2.40;;;;;;;10.23;82.77;101721.33;1655191;83;21080;-91
2022/09/21 01:35:06;;;;;;;4.58;2.30;;;;;;;10.15;82.84;101725.77;1672885;84;21106;-90
2022/09/21 01:37:40;;;;;;;4.92;2.10;;;;;;;10.06;82.95;101724.95;1667106;83;21521;-90
2022/09/21 01:40:15;;;;;;;4.20;2.15;;;;;;;9.99;83.02;101728.17;1686001;83;22415;-91
2022/09/21 01:42:42;;;;;;;4.22;2.37;;;;;;;9.91;83.09;101725.22;1685108;83;22824;-91
2022/09/21 01:45:10;;;;;;;6.28;2.72;;;;;;;9.84;83.17;101725.36;1685577;83;21076;-91
2022/09/21 01:47:37;;;;;;;4.33;2.12;;;;;;;9.78;83.22;101725.09;1666067;84;21555;-89
2022/09/21 01:50:06;;;;;;;4.83;2.40;;;;;;;9.74;83.36;101727.08;1689752;83;21625;-90
2022/09/21 01:52:50;;;;;;;4.30;2.05;;;;;;;9.68;83.39;101727.71;1688380;83;21058;-90
2022/09/21 01:55:22;;;;;;;5.87;2.25;;;;;;;9.65;83.49;101728.02;1675566;85;21804;-89
2022/09/21 01:57:57;;;;;;;8.58;2.85;;;;;;;9.60;83.46;101726.48;1684453;83;20996;-90
2022/09/21 02:00:25;;;;;;;3.02;1.87;;;;;;;9.55;83.51;101721.43;1699820;81;21007;-91
2022/09/21 02:03:03;;;;;;;4.50;1.80;;;;;;;9.50;83.56;101726.92;1670218;83;21052;-91
2022/09/21 02:05:30;;;;;;;3.83;2.25;;;;;;;9.47;83.63;101726.34;1687558;83;21453;-91
2022/09/21 02:07:57;;;;;;;4.45;2.02;;;;;;;9.44;83.73;101723.98;1726616;80;21912;-91
2022/09/21 02:10:34;;;;;;;3.45;1.95;;;;;;;9.41;83.77;101727.39;1707791;82;20987;-91
2022/09/21 02:13:05;;;;;;;5.33;2.10;;;;;;;9.38;83.80;101725.92;1660091;83;21102;-92
2022/09/21 02:15:54;;;;;;;4.47;2.25;;;;;;;9.35;83.83;101729.75;1708052;83;21253;-93
2022/09/21 02:18:32;;;;;;;5.40;2.02;;;;;;;9.33;83.88;101732.30;1671736;84;21073;-92
2022/09/21 02:20:59;;;;;;;4.30;2.30;;;;;;;9.31;83.98;101727.39;1660937;84;21786;-92
2022/09/21 02:23:42;;;;;;;4.58;2.15;;;;;;;9.33;84.05;101739.30;1709894;82;21089;-92
2022/09/21 02:26:16;;;;;;;3.25;2.27;;;;;;;9.30;84.09;101738.72;1672175;84;21117;-92
2022/09/21 02:28:48;;;;;;;4.92;2.10;;;;;;;9.30;84.12;101737.41;1710198;82;21087;-91
2022/09/21 02:31:23;;;;;;;5.92;2.00;;;;;;;9.31;84.29;101738.33;1710012;83;21062;-92
2022/09/21 02:34:01;;;;;;;4.70;1.80;;;;;;;9.35;84.50;101736.31;1708135;82;21902;-91
2022/09/21 02:36:42;;;;;;;3.25;1.77;;;;;;;9.40;84.64;101736.09;1706922;83;21094;-91
2022/09/21 02:39:12;;;;;;;6.25;1.90;;;;;;;9.45;84.75;101741.57;1684652;84;21061;-91
2022/09/21 02:41:47;;;;;;;6.40;1.50;;;;;;;9.50;84.80;101742.27;1670368;84;21082;-90
2022/09/21 02:44:31;;;;;;;6.15;1.70;;;;;;;9.53;84.78;101743.73;1676561;83;21082;-91
2022/09/21 02:46:58;;;;;;;5.25;1.62;;;;;;;9.57;84.71;101746.47;1670401;83;21753;-91
2022/09/21 02:49:33;;;;;;;3.27;1.55;;;;;;;9.58;84.61;101749.17;1698484;83;21042;-90
2022/09/21 02:52:04;;;;;;;3.98;1.82;;;;;;;9.58;84.53;101746.97;1697553;82;21062;-89
2022/09/21 02:54:31;;;;;;;3.62;2.08;;;;;;;9.57;84.48;101749.10;1677909;83;21097;-89
2022/09/21 02:56:59;;;;;;;3.05;1.60;;;;;;;9.55;84.53;101751.66;1686248;83;21110;-90
2022/09/21 02:59:26;;;;;;;2.98;1.67;;;;;;;9.54;84.54;101757.77;1678708;83;21785;-89
2022/09/21 03:01:54;;;;;;;2.17;1.42;;;;;;;9.53;84.52;101762.13;1677869;83;21137;-89
2022/09/21 03:04:22;;;;;;;4.70;1.47;;;;;;;9.51;84.58;101759.81;1700256;83;21057;-89
2022/09/21 03:06:48;;;;;;;3.10;1.47;;;;;;;9.50;84.56;101764.60;1704865;80;22551;-91
2022/09/21 03:09:16;;;;;;;3.30;1.65;;;;;;;9.49;84.56;101764.10;1677684;83;21554;-89
2022/09/21 03:11:43;;;;;;;3.95;1.62;;;;;;;9.48;84.58;101765.37;1682680;83;21576;-90
2022/09/21 03:14:09;;;;;;;6.30;1.70;;;;;;;9.48;84.59;101767.58;1705296;83;21001;-90
2022/09/21 03:16:36;;;;;;;5.25;1.90;;;;;;;9.45;84.58;101763.48;1686941;83;21121;-90
2022/09/21 03:19:03;;;;;;;2.25;1.60;;;;;;;9.44;84.60;101768.66;1691395;83;21734;-91
2022/09/21 03:21:30;;;;;;;2.10;1.37;;;;;;;9.42;84.63;101769.94;1709585;82;21633;-90
2022/09/21 03:23:58;;;;;;;5.35;1.90;;;;;;;9.41;84.73;101765.49;1709362;83;21798;-90
2022/09/21 03:26:24;;;;;;;2.52;1.50;;;;;;;9.42;84.83;101775.19;1687356;82;21074;-90
2022/09/21 03:28:53;;;;;;;2.52;1.70;;;;;;;9.44;84.90;101773.92;1673758;83;22173;-90
2022/09/21 03:31:20;;;;;;;3.22;1.40;;;;;;;9.45;84.93;101775.73;1678352;83;21823;-89
2022/09/21 03:33:47;;;;;;;4.22;1.32;;;;;;;9.46;84.95;101776.20;1684229;84;21141;-90
2022/09/21 03:36:13;;;;;;;3.83;1.50;;;;;;;9.48;85.06;101773.26;1692622;82;21745;-90
2022/09/21 03:38:41;;;;;;;2.98;1.50;;;;;;;9.51;85.09;101778.20;1677424;83;21117;-90
2022/09/21 03:41:08;;;;;;;3.47;1.50;;;;;;;9.54;85.12;101777.05;1677693;83;21149;-90
2022/09/21 03:43:35;;;;;;;2.67;1.27;;;;;;;9.59;85.11;101777.66;1678839;83;21099;-90
2022/09/21 03:46:02;;;;;;;6.20;2.67;;;;;;;9.62;85.15;101781.34;1702636;83;21081;-91
2022/09/21 03:48:29;;;;;;;6.97;2.10;;;;;;;9.71;85.37;101788.33;1690371;83;21733;-91
2022/09/21 03:50:56;;;;;;;7.35;2.67;;;;;;;9.83;85.42;101791.91;1687902;84;21495;-90
2022/09/21 03:53:23;;;;;;;5.00;2.02;;;;;;;9.92;85.39;101808.10;1679682;84;21514;-92
2022/09/21 03:55:50;;;;;;;5.70;1.67;;;;;;;10.05;85.38;101812.61;1672435;84;21080;-93
2022/09/21 03:58:17;;;;;;;2.62;1.52;;;;;;;10.14;85.24;101808.18;1691317;83;21099;-91
2022/09/21 04:00:48;;;;;;;3.83;1.70;;;;;;;10.22;85.13;101808.97;1689768;83;21965;-92
2022/09/21 04:03:15;;;;;;;5.83;1.52;;;;;;;10.31;85.00;101810.72;1684188;83;21079;-90
2022/09/21 04:05:42;;;;;;;3.22;1.25;;;;;;;10.39;84.88;101815.00;1691004;83;21106;-91
2022/09/21 04:08:09;;;;;;;5.28;1.80;;;;;;;10.45;84.74;101815.25;1691109;83;21622;-93
2022/09/21 04:10:50;;;;;;;5.25;1.60;;;;;;;10.53;84.71;101818.23;1690264;83;21114;-93
2022/09/21 04:13:17;;;;;;;3.75;1.52;;;;;;;10.57;84.52;101819.27;1689496;83;21985;-92
2022/09/21 04:15:47;;;;;;;3.80;1.10;;;;;;;10.56;84.34;101820.09;1681935;83;21639;-92
2022/09/21 04:18:13;;;;;;;2.37;1.32;;;;;;;10.47;84.30;101793.87;1682640;84;21103;-86
2022/09/21 04:20:40;;;;;;;1.80;1.52;;;;;;;10.61;84.24;101808.91;1687078;83;21598;-86
2022/09/21 04:23:08;;;;;;;2.55;1.47;;;;;;;10.67;84.27;101806.95;1682888;84;21088;-85
2022/09/21 04:25:34;;;;;;;4.35;1.50;;;;;;;10.70;84.18;101813.25;1687279;84;22420;-86
2022/09/21 04:28:01;;;;;;;3.45;1.50;;;;;;;10.73;84.07;101807.20;1683917;84;20946;-86
2022/09/21 04:30:28;;;;;;;6.12;1.80;;;;;;;10.77;84.05;101809.54;1686372;84;21080;-89
2022/09/21 04:32:55;;;;;;;4.62;2.12;;;;;;;10.79;83.91;101806.55;1691114;84;21108;-88
2022/09/21 04:35:22;;;;;;;4.28;2.30;;;;;;;10.80;83.90;101806.62;1685867;83;21493;-87
2022/09/21 04:37:49;;;;;;;6.65;2.70;;;;;;;10.84;83.80;101803.70;1690005;83;21759;-91
2022/09/21 04:40:16;;;;;;;5.87;2.33;;;;;;;10.86;83.81;101799.39;1689992;84;21104;-93
2022/09/21 04:42:43;;;;;;;3.90;1.90;;;;;;;10.89;83.70;101806.11;1691060;84;21064;-92
2022/09/21 04:45:10;;;;;;;3.10;1.57;;;;;;;10.89;83.63;101804.36;1685690;84;21526;-91
2022/09/21 04:47:37;;;;;;;2.27;1.47;;;;;;;10.88;83.48;101808.24;1689867;84;21056;-90
2022/09/21 04:50:05;;;;;;;3.15;1.90;;;;;;;10.86;83.49;101813.44;1690031;84;21746;-90
2022/09/21 04:52:32;;;;;;;3.52;1.92;;;;;;;10.85;83.47;101813.41;1658463;84;21476;-92
2022/09/21 04:54:59;;;;;;;3.85;1.85;;;;;;;10.85;83.54;101819.56;1655483;85;21097;-86
2022/09/21 04:57:26;;;;;;;5.50;1.98;;;;;;;10.87;83.52;101819.64;1641456;86;22120;-94
2022/09/21 04:59:53;;;;;;;4.05;2.10;;;;;;;10.89;83.57;101821.48;1633173;85;21115;-93
2022/09/21 05:02:19;;;;;;;2.98;1.70;;;;;;;10.90;83.41;101818.42;1635935;85;22473;-93
2022/09/21 05:04:51;;;;;;;5.05;1.92;;;;;;;10.93;83.43;101825.57;1642565;86;21202;-91
2022/09/21 05:07:17;;;;;;;1.98;1.20;;;;;;;10.95;83.37;101826.10;1644610;86;21115;-91
2022/09/21 05:10:02;;;;;;;4.62;1.70;;;;;;;10.99;83.26;101821.86;1619074;85;21182;-92
2022/09/21 05:12:31;;;;;;;2.85;1.75;;;;;;;10.99;83.11;101819.22;1633324;86;21119;-92
2022/09/21 05:14:58;;;;;;;3.12;1.30;;;;;;;11.03;83.08;101829.94;1644539;86;21760;-93
2022/09/21 05:17:25;;;;;;;4.30;1.65;;;;;;;11.04;82.88;101836.13;1642436;84;21067;-92
2022/09/21 05:19:54;;;;;;;4.90;2.00;;;;;;;11.02;82.86;101837.37;1619741;87;21171;-92
2022/09/21 05:22:21;;;;;;;3.50;1.30;;;;;;;11.07;82.94;101838.47;1634746;85;21107;-92
2022/09/21 05:24:48;;;;;;;2.10;1.52;;;;;;;11.13;82.74;101843.09;1636936;87;21100;-91
2022/09/21 05:27:15;;;;;;;3.10;1.10;;;;;;;11.14;82.57;101840.91;1628908;85;21884;-92
2022/09/21 05:29:43;;;;;;;1.65;1.20;;;;;;;11.16;82.44;101839.66;1630733;85;21123;-92
2022/09/21 05:32:30;;;;;;;3.50;1.30;;;;;;;11.18;82.39;101840.19;1627641;87;21095;-92
2022/09/21 05:35:35;;;;;;;3.55;1.30;;;;;;;11.21;82.29;101837.69;1628350;87;21061;-94
2022/09/21 05:38:11;;;;;;;;;;;;;;;11.29;82.32;101844.58;1634808;86;21601;-92
2022/09/21 05:40:38;;;;;;;2.08;1.40;;;;;;;11.44;82.34;101849.56;1628565;86;21860;-92
2022/09/21 05:43:06;;;;;;;2.58;1.20;;;;;;;11.58;82.17;101850.08;1634020;86;21545;-92
2022/09/21 05:45:33;;;;;;;2.65;1.32;;;;;;;11.72;82.11;101855.48;1620373;85;21098;-92
2022/09/21 05:48:20;;;;;;;2.12;1.30;;;;;;;11.82;81.80;101857.64;1634015;87;21112;-93
2022/09/21 05:51:08;;;;;;;4.75;1.20;;;;;;;11.90;81.67;101859.67;1641758;86;21593;-93
2022/09/21 05:54:26;;;;;;;1.80;1.15;;;;;;;11.99;81.57;101862.26;1645626;85;21730;-91
2022/09/21 05:57:16;;;;;;;3.58;1.55;;;;;;;12.07;81.59;101861.22;1656726;83;21079;-93
2022/09/21 06:00:19;;;;;;;4.05;1.77;;;;;;;12.17;81.39;101857.16;1680155;84;21011;-93
2022/09/21 06:03:29;;;;;;;5.87;1.70;;;;;;;12.28;81.36;101858.45;1667046;83;21095;-92
2022/09/21 06:05:57;;;;;;;4.90;2.22;;;;;;;12.34;81.09;101864.37;1668329;84;21150;-92
2022/09/21 06:08:24;;;;;;;4.90;1.92;;;;;;;12.36;81.06;101860.04;1674600;83;21828;-93
2022/09/21 06:10:51;;;;;;;6.20;1.72;;;;;;;12.34;80.86;101857.34;1676606;84;21121;-92
2022/09/21 06:13:18;;;;;;;6.03;2.10;;;;;;;12.29;80.72;101865.51;1660942;84;21968;-93
2022/09/21 06:15:45;;;;;;;6.35;2.02;;;;;;;12.25;80.94;101863.61;1652203;85;21098;-93
2022/09/21 06:18:13;;;;;;;7.33;2.10;;;;;;;12.28;80.98;101866.80;1626368;84;21081;-92
2022/09/21 06:20:40;;;;;;;4.70;1.82;;;;;;;12.29;81.04;101868.15;1673209;84;23275;-92
2022/09/21 06:23:10;;;;;;;7.85;1.95;;;;;;;12.29;80.92;101865.51;1661739;84;21647;-92
2022/09/21 06:25:36;;;;;;;3.30;2.02;;;;;;;12.29;80.87;101868.15;1675924;84;21075;-93
2022/09/21 06:28:09;;;;;;;7.58;2.10;;;;;;;12.32;80.95;101866.06;1708885;82;21081;-93
2022/09/21 06:30:36;;;;;;;5.75;2.10;;;;;;;12.38;80.88;101879.47;1678021;84;21082;-93
2022/09/21 06:33:07;;;;;;;4.05;1.75;;;;;;;12.40;80.79;101876.03;1709758;83;21703;-93
2022/09/21 06:35:34;;;;;;;4.03;1.77;;;;;;;12.44;80.65;101877.04;1710064;81;21512;-92
2022/09/21 06:38:03;;;;;;;8.28;2.02;;;;;;;12.45;80.71;101877.53;1732486;81;21715;-92
2022/09/21 06:40:30;;;;;;;3.37;2.10;;;;;;;12.51;80.72;101879.05;1638815;85;21089;-92
2022/09/21 06:42:59;;;;;;;6.17;2.10;;;;;;;12.58;80.68;101870.94;1684226;83;21069;-92
2022/09/21 06:45:26;;;;;;;3.15;1.75;;;;;;;12.73;80.82;101875.86;1667409;84;21758;-93
2022/09/21 06:47:53;;;;;;;3.83;1.87;;;;;;;12.90;80.72;101877.75;1709992;83;21082;-93
2022/09/21 06:50:20;;;;;;;5.25;1.60;;;;;;;13.19;80.97;101873.40;1668428;84;21082;-93
2022/09/21 06:52:52;;;;;;;6.17;1.92;;;;;;;13.50;80.74;101867.81;1698662;83;21054;-93
2022/09/21 06:55:22;;;;;;;4.50;1.70;;;;;;;13.72;80.32;101873.30;1676986;83;21695;-93
2022/09/21 06:57:50;;;;;;;2.83;1.57;;;;;;;13.90;79.76;101884.44;1677422;84;21797;-93
2022/09/21 07:00:17;;;;;;;2.55;1.52;;;;;;;13.94;79.17;101876.17;1671359;84;21575;-93
2022/09/21 07:02:44;;;;;;;7.12;3.15;;;;;;;14.02;79.01;101885.66;1671692;84;21052;-92
2022/09/21 07:05:11;;;;;;;6.85;2.08;;;;;;;13.98;78.43;101876.32;1642706;85;21555;-91
2022/09/21 07:07:39;;;;;;;3.60;2.20;;;;;;;14.03;78.16;101883.05;1671768;84;21511;-92
2022/09/21 07:10:07;;;;;;;3.12;2.10;;;;;;;13.96;78.07;101878.43;1671743;84;21782;-93
2022/09/21 07:12:34;;;;;;;3.40;1.70;;;;;;;13.98;78.07;101876.72;1668092;84;21047;-92
2022/09/21 07:15:03;;;;;;;3.40;1.90;;;;;;;13.92;77.70;101883.17;1614816;86;21153;-92
2022/09/21 07:17:35;;;;;;;3.17;1.80;;;;;;;13.84;77.72;101890.89;1645203;84;21109;-92
2022/09/21 07:20:03;;;;;;;3.42;1.80;;;;;;;13.82;77.67;101893.91;1631499;84;21011;-92
2022/09/21 07:22:31;;;;;;;9.20;2.25;;;;;;;13.78;77.34;101898.22;1653546;84;21765;-92
2022/09/21 07:24:58;;;;;;;10.50;2.30;;;;;;;13.82;77.46;101902.29;1653655;84;21058;-93
2022/09/21 07:27:27;;;;;;;5.35;2.10;;;;;;;13.89;77.52;101905.56;1649534;85;21488;-91
2022/09/21 07:29:54;;;;;;;5.80;2.27;;;;;;;13.78;77.37;101874.40;1652177;84;21082;-91
2022/09/21 07:32:20;;;;;;;2.98;2.08;;;;;;;14.02;77.12;101910.41;1651980;84;21022;-91
2022/09/21 07:34:47;;;;;;;13.75;2.20;;;;;;;14.10;77.23;101905.33;1652065;84;22262;-92
2022/09/21 07:37:15;;;;;;;3.92;2.20;;;;;;;14.20;77.00;101906.94;1665292;84;21082;-91
2022/09/21 07:39:42;;;;;;;3.92;2.27;;;;;;;14.34;77.01;101907.75;1663108;84;21082;-94
2022/09/21 07:42:11;;;;;;;6.45;2.35;;;;;;;14.42;76.62;101906.23;1653656;85;21600;-93
2022/09/21 07:44:40;;;;;;;3.72;2.42;;;;;;;14.50;76.60;101911.73;1661438;84;21290;-93
2022/09/21 07:47:07;;;;;;;6.35;2.30;;;;;;;14.65;76.76;101915.27;1655569;84;22485;-93
2022/09/21 07:49:35;;;;;;;5.40;2.75;;;;;;;14.80;76.58;101914.78;1651648;85;21123;-93
2022/09/21 07:52:02;;;;;;;5.85;2.35;;;;;;;14.91;76.46;101923.91;1653117;84;21061;-93
2022/09/21 07:54:29;;;;;;;5.97;2.10;;;;;;;15.05;76.35;101913.64;1696882;83;21085;-93
2022/09/21 07:59:41;;;;;;;5.30;2.25;;;;;;;15.24;75.84;101909.28;1687584;83;21828;-93
2022/09/21 08:02:07;;;;;;;4.00;2.40;;;;;;;15.11;75.23;101917.80;1694420;83;21077;-93
2022/09/21 08:04:34;;;;;;;5.42;2.35;;;;;;;14.95;74.45;101915.17;1669534;83;21066;-90
2022/09/21 08:07:02;;;;;;;6.67;2.75;;;;;;;14.61;73.96;101925.32;1679549;84;21251;-92
2022/09/21 08:09:28;;;;;;;7.47;3.27;;;;;;;14.32;74.46;101918.73;1679087;83;21105;-92
2022/09/21 08:11:55;;;;;;;7.12;6.33;;;;;;;14.18;74.67;101915.70;1659841;84;22587;-92
2022/09/21 08:14:24;;;;;;;5.65;3.22;;;;;;;14.10;74.83;101919.45;1699249;83;21155;-92
2022/09/21 08:16:51;;;;;;;5.90;3.90;;;;;;;14.03;75.09;101913.50;1645733;85;21096;-92
2022/09/21 08:19:19;;;;;;;6.12;3.95;;;;;;;13.97;75.05;101910.69;1644927;85;21130;-93
2022/09/21 08:21:48;;;;;;;4.25;3.85;;;;;;;13.88;74.83;101919.23;1691751;83;21121;-92
2022/09/21 08:24:16;;;;;;;7.92;6.62;;;;;;;13.83;74.42;101915.98;1700279;82;21266;-94
2022/09/21 08:26:45;;;;;;;3.15;1.60;;;;;;;13.75;73.89;101909.13;1680700;82;21157;-91
2022/09/21 08:29:14;;;;;;;3.27;1.87;;;;;;;13.75;73.96;101928.98;1677977;83;21031;-92
2022/09/21 08:31:43;;;;;;;4.78;1.60;;;;;;;13.72;73.39;101923.17;1699729;81;21145;-92
2022/09/21 08:34:10;;;;;;;6.60;3.10;;;;;;;13.71;73.42;101918.72;1710219;83;21081;-92
2022/09/21 08:36:38;;;;;;;6.72;5.30;;;;;;;13.75;73.57;101915.75;1694103;82;21722;-93
2022/09/21 08:39:07;;;;;;;3.85;1.85;;;;;;;13.82;73.62;101926.11;1679496;83;20995;-93
2022/09/21 08:42:01;;;;;;;6.95;4.05;;;;;;;13.83;73.23;101915.54;1692981;83;21150;-92
2022/09/21 08:44:53;;;;;;;2.35;1.55;;;;;;;13.93;73.26;101912.34;1689781;81;21050;-93
2022/09/21 08:47:31;;;;;;;2.85;1.82;;;;;;;14.05;72.85;101913.12;1706279;83;21016;-92
2022/09/21 08:49:58;;;;;;;1.42;1.30;;;;;;;14.14;72.41;101921.77;1707940;83;21914;-92
2022/09/21 08:52:25;;;;;;;2.85;2.17;;;;;;;14.16;71.62;101919.62;1689782;83;20991;-93
2022/09/21 08:55:17;;;;;;;2.40;1.50;;;;;;;14.30;71.90;101913.82;1665682;83;21212;-93
2022/09/21 08:57:44;;;;;;;6.92;6.28;;;;;;;14.44;71.52;101917.77;1700091;83;21082;-91
2022/09/21 09:00:16;;;;;;;4.53;2.30;;;;;;;14.65;71.84;101928.52;1704273;83;21037;-92
2022/09/21 09:03:36;;;;;;;8.20;3.22;;;;;;;14.80;71.27;101917.43;1701516;83;21862;-92
2022/09/21 09:06:08;;;;;;;9.00;1.82;;;;;;;15.09;71.40;101916.84;1628579;86;21101;-91
2022/09/21 09:08:54;;;;;;;3.40;1.37;;;;;;;15.44;70.52;101916.38;1671497;82;21598;-91
2022/09/21 09:11:43;;;;;;;5.00;1.30;;;;;;;15.66;70.18;101920.43;1685154;83;21468;-92
2022/09/21 09:14:27;;;;;;;1.57;1.25;;;;;;;15.67;69.27;101917.34;1678323;83;21113;-92
2022/09/21 09:17:31;;;;;;;;;;;;;;;15.66;68.66;101920.43;1680047;84;23104;-92
2022/09/21 09:20:19;;;;;;;7.65;3.85;;;;;;;15.40;68.17;101922.91;1679486;83;20789;-93
2022/09/21 09:23:06;;;;;;;3.10;1.45;;;;;;;15.10;68.10;101918.20;1714815;81;21097;-92
2022/09/21 09:25:40;;;;;;;5.65;4.78;;;;;;;14.79;67.87;101915.22;1685102;82;21085;-92
2022/09/21 09:28:28;;;;;;;4.17;1.50;;;;;;;14.71;68.58;101915.42;1688061;83;21081;-92
2022/09/21 09:31:24;;;;;;;3.25;2.80;;;;;;;14.76;68.61;101912.04;1674768;83;21780;-92
2022/09/21 09:33:55;;;;;;;2.58;1.57;;;;;;;14.90;68.52;101905.80;1645300;83;21118;-92
2022/09/21 09:36:29;;;;;;;3.87;1.52;;;;;;;15.34;68.85;101908.63;1644819;84;21110;-93
2022/09/21 09:38:59;;;;;;;2.50;1.25;;;;;;;15.79;68.50;101900.84;1653105;84;21156;-93
2022/09/21 09:41:57;;;;;;;1.62;1.00;;;;;;;16.13;68.10;101910.41;1659004;84;21792;-93
2022/09/21 09:44:47;;;;;;;4.37;1.30;;;;;;;16.19;67.02;101904.33;1647273;83;21753;-93
2022/09/21 09:47:55;;;;;;;4.33;1.70;;;;;;;15.91;66.07;101909.06;1649659;83;21130;-93
2022/09/21 09:50:28;;;;;;;3.17;1.20;;;;;;;15.69;65.78;101929.80;1650434;83;21335;-93
2022/09/21 09:53:03;;;;;;;6.78;3.17;;;;;;;15.45;66.31;101915.53;1652480;84;21224;-93
2022/09/21 09:55:38;;;;;;;5.22;2.87;;;;;;;15.40;66.25;101909.20;1651321;83;21097;-93
2022/09/21 09:58:14;;;;;;;;;;;;;;;15.40;66.66;101914.52;1672538;84;21885;-93
2022/09/21 10:00:53;;;;;;;8.53;2.47;;;;;;;15.44;66.57;101911.50;1663555;84;20258;-93
2022/09/21 10:03:29;;;;;;;2.60;1.70;;;;;;;15.56;66.64;101911.81;1663640;84;21140;-94
2022/09/21 10:05:56;;;;;;;2.70;1.40;;;;;;;15.73;66.49;101907.80;1663937;85;21148;-93
2022/09/21 10:08:45;;;;;;;1.77;1.37;;;;;;;15.87;66.42;101901.45;1658490;84;21681;-93
2022/09/21 10:11:14;;;;;;;3.33;1.20;;;;;;;16.23;66.70;101908.84;1538652;90;22663;-93
2022/09/21 10:13:43;;;;;;;2.30;1.15;;;;;;;16.42;65.75;101904.37;1539298;91;21115;-94
2022/09/21 10:16:19;;;;;;;2.15;1.40;;;;;;;16.31;65.45;101908.14;1601567;87;21129;-93
2022/09/21 10:18:57;;;;;;;2.12;1.45;;;;;;;16.12;65.04;101914.84;1630996;87;21146;-93
2022/09/21 10:21:28;;;;;;;1.95;1.20;;;;;;;15.83;64.53;101928.80;1594052;88;21718;-93
2022/09/21 10:24:00;;;;;;;5.10;1.30;;;;;;;15.68;64.56;101948.34;1592922;88;21898;-93
2022/09/21 10:26:38;;;;;;;1.50;1.20;;;;;;;15.47;64.09;101932.38;1613641;87;21127;-93
2022/09/21 10:29:30;;;;;;;4.37;1.42;;;;;;;15.30;64.50;101946.56;1604848;87;21097;-92
2022/09/21 10:32:13;;;;;;;3.25;1.37;;;;;;;15.22;64.77;101939.27;1624126;86;21083;-92
2022/09/21 10:35:10;;;;;;;3.95;1.52;;;;;;;15.26;64.90;101945.11;1598448;87;21512;-92
2022/09/21 10:37:39;;;;;;;3.00;1.30;;;;;;;15.26;64.65;101941.13;1571226;88;22833;-92
2022/09/21 10:40:22;;;;;;;2.75;1.25;;;;;;;15.27;64.78;101945.15;1604873;87;21817;-91
2022/09/21 10:42:50;;;;;;;3.40;1.30;;;;;;;15.40;64.90;101942.81;1598552;88;21561;-91
2022/09/21 10:45:27;;;;;;;3.05;1.30;;;;;;;15.57;64.67;101936.14;1580547;89;21169;-92
2022/09/21 10:48:09;;;;;;;5.95;1.30;;;;;;;15.67;64.76;101930.20;1593302;89;21559;-91
2022/09/21 10:50:48;;;;;;;2.20;1.17;;;;;;;15.78;64.28;101929.56;1588378;88;22623;-92
2022/09/21 10:53:34;;;;;;;3.33;1.32;;;;;;;15.71;64.12;101933.80;1601017;87;22338;-93
2022/09/21 10:56:19;;;;;;;1.62;1.22;;;;;;;15.65;64.29;101927.02;1607563;87;21203;-93
2022/09/21 10:59:23;;;;;;;1.98;1.60;;;;;;;15.65;64.26;101934.98;1607163;87;21148;-93
2022/09/21 11:01:55;;;;;;;2.92;1.30;;;;;;;15.79;64.32;101933.59;1557135;89;21132;-93
2022/09/21 11:04:33;;;;;;;4.17;1.25;;;;;;;15.91;63.75;101931.63;1564682;90;21780;-93
2022/09/21 11:07:31;;;;;;;4.03;1.42;;;;;;;15.89;63.17;101958.58;1616698;87;21131;-93
2022/09/21 11:10:12;;;;;;;4.22;1.30;;;;;;;15.76;63.45;101941.47;1600586;88;21121;-93
2022/09/21 11:13:11;;;;;;;2.70;1.40;;;;;;;15.86;63.55;101927.56;1600540;88;21194;-93
2022/09/21 11:16:05;;;;;;;2.62;1.30;;;;;;;16.08;63.47;101922.69;1590965;88;21120;-94
2022/09/21 11:19:03;;;;;;;3.67;1.60;;;;;;;16.18;63.28;101926.43;1611156;87;21100;-93
2022/09/21 11:21:45;;;;;;;4.83;1.52;;;;;;;16.17;63.11;101921.56;1578050;88;21498;-92
2022/09/21 11:24:52;;;;;;;2.45;1.50;;;;;;;16.06;62.75;101927.97;1589703;86;21108;-91
2022/09/21 11:27:41;;;;;;;4.80;1.52;;;;;;;15.90;62.88;101924.10;1648788;85;21058;-92
2022/09/21 11:30:16;;;;;;;2.67;1.50;;;;;;;15.78;62.62;101936.20;1650249;85;21227;-92
2022/09/21 11:33:18;;;;;;;5.17;1.32;;;;;;;15.83;63.04;101933.23;1648758;85;21771;-93
2022/09/21 11:36:18;;;;;;;7.15;1.80;;;;;;;15.91;63.13;101934.28;1627072;85;21121;-93
2022/09/21 11:39:10;;;;;;;7.20;1.57;;;;;;;15.97;63.21;101934.84;1629435;86;21100;-93
2022/09/21 11:42:13;;;;;;;6.90;1.80;;;;;;;16.00;63.37;101933.16;1652498;84;21097;-92
2022/09/21 11:45:00;;;;;;;7.78;2.95;;;;;;;15.91;63.24;101928.53;1636965;85;21558;-92
2022/09/21 11:47:55;;;;;;;3.27;1.67;;;;;;;15.83;63.62;101934.11;1649139;85;21860;-92
2022/09/21 11:50:58;;;;;;;4.97;1.60;;;;;;;15.74;63.85;101932.14;1646555;85;21086;-92
2022/09/21 11:53:40;;;;;;;3.12;1.50;;;;;;;15.73;64.13;101940.98;1648176;84;21444;-92
2022/09/21 11:56:30;;;;;;;4.12;1.55;;;;;;;15.80;64.25;101953.06;1655462;84;21090;-92
2022/09/21 11:59:22;;;;;;;6.55;1.70;;;;;;;15.79;64.39;101943.32;1667633;83;21277;-93
2022/09/21 12:02:28;;;;;;;5.97;1.72;;;;;;;16.00;64.74;101945.11;1681894;83;21752;-92